Time;durP1;ratioP1;P1;durP2;ratioP2;P2;SDS_P1;SDS_P2;PMS_P1;PMS_P2;Temp;Humidity;BMP_temperature;BMP_pressure;BME280_temperature;BME280_humidity;BME280_pressure;Samples;Min_cycle;Max_cycle;Signal;HPM_P1;HPM_P2
2022/04/07 00:00:34;;;;;;;2.55;0.88;;;;;;;11.60;66.94;98401.72;1087971;54;20030;-80
2022/04/07 00:01:36;;;;;;;2.00;0.80;;;;;;;11.69;66.35;98403.25;1089900;46;20035;-83
2022/04/07 00:02:40;;;;;;;3.45;0.90;;;;;;;11.62;66.57;98412.22;1088308;54;20057;-80
2022/04/07 00:03:44;;;;;;;2.65;1.08;;;;;;;11.61;66.58;98405.22;1088410;54;20038;-80
2022/04/07 00:04:45;;;;;;;2.13;0.77;;;;;;;11.78;65.95;98403.09;1088417;54;20038;-81
2022/04/07 00:05:50;;;;;;;3.42;1.15;;;;;;;11.76;66.05;98405.97;1096278;39;20812;-80
2022/04/07 00:06:52;;;;;;;3.03;1.33;;;;;;;11.69;66.41;98402.41;1088476;54;20023;-81
2022/04/07 00:07:56;;;;;;;2.80;1.00;;;;;;;11.73;66.09;98392.13;1088495;54;20031;-81
2022/04/07 00:09:03;;;;;;;2.55;1.08;;;;;;;11.64;66.17;98389.59;1088432;54;20030;-81
2022/04/07 07:01:59;;;;;;;2.40;0.88;;;;;;;10.95;66.02;97973.91;1087725;47;20030;-79
2022/04/07 07:03:03;;;;;;;2.08;0.82;;;;;;;11.04;65.66;97959.34;1090099;46;20058;-80
2022/04/07 07:04:07;;;;;;;2.78;0.93;;;;;;;11.02;65.69;97958.72;1088057;54;20027;-83
2022/04/07 07:05:09;;;;;;;1.90;0.70;;;;;;;11.06;65.51;97965.28;1088106;54;20034;-82
2022/04/07 07:06:13;;;;;;;1.45;0.60;;;;;;;11.16;65.37;97959.59;1088155;54;20090;-81
2022/04/07 07:07:16;;;;;;;2.75;0.63;;;;;;;11.12;64.95;97962.88;1087995;54;20038;-82
2022/04/07 07:08:22;;;;;;;2.95;1.17;;;;;;;11.19;64.78;97961.03;1087541;54;20034;-82
2022/04/07 07:09:23;;;;;;;2.08;0.70;;;;;;;11.32;64.83;97947.72;1090040;39;20676;-81
2022/04/07 07:10:29;;;;;;;3.95;0.82;;;;;;;11.17;64.53;97953.22;1088112;54;20027;-81
2022/04/07 07:11:33;;;;;;;2.05;0.63;;;;;;;11.33;64.64;97953.88;1088046;54;20037;-81
2022/04/07 07:12:35;;;;;;;4.28;0.70;;;;;;;11.31;64.29;97948.75;1088119;54;20042;-79
2022/04/07 07:13:39;;;;;;;2.92;0.82;;;;;;;11.36;64.66;97948.13;1088023;54;20733;-81
2022/04/07 07:14:40;;;;;;;2.75;0.77;;;;;;;11.23;64.37;97947.06;1088112;54;20035;-82
2022/04/07 07:15:45;;;;;;;2.60;0.73;;;;;;;11.39;64.26;97945.88;1088108;54;20074;-80
2022/04/07 07:16:49;;;;;;;2.25;0.70;;;;;;;11.34;64.41;97942.16;1088103;54;20066;-82
2022/04/07 07:17:53;;;;;;;2.97;0.75;;;;;;;11.30;63.74;97940.91;1088138;54;20065;-81
2022/04/07 07:18:57;;;;;;;4.18;0.90;;;;;;;11.38;64.01;97946.09;1088125;54;20067;-81
2022/04/07 07:20:01;;;;;;;2.65;0.80;;;;;;;11.33;63.69;97944.03;1088071;54;20031;-80
2022/04/07 07:21:05;;;;;;;1.88;0.70;;;;;;;11.36;63.77;97937.44;1088207;46;20030;-82
2022/04/07 07:22:06;;;;;;;5.05;1.00;;;;;;;11.50;63.47;97931.09;1088152;54;20038;-84
2022/04/07 07:23:11;;;;;;;2.22;0.90;;;;;;;11.61;63.34;97935.03;1088108;54;20100;-82
2022/04/07 07:24:13;;;;;;;1.42;0.50;;;;;;;11.57;63.02;97924.94;1087715;54;20039;-82
2022/04/07 07:25:17;;;;;;;2.25;0.70;;;;;;;11.44;63.58;97933.72;1087754;54;20043;-82
2022/04/07 07:26:21;;;;;;;2.42;0.80;;;;;;;11.47;63.24;97922.63;1088134;54;20034;-82
2022/04/07 07:27:23;;;;;;;2.15;0.60;;;;;;;11.53;63.02;97922.66;1088674;46;20053;-84
2022/04/07 07:28:27;;;;;;;1.45;0.60;;;;;;;11.64;63.06;97928.44;1088145;54;20030;-83
2022/04/07 07:29:31;;;;;;;2.47;0.88;;;;;;;11.53;62.87;97921.81;1089847;46;20042;-82
2022/04/07 07:30:33;;;;;;;2.92;0.70;;;;;;;11.41;63.19;97918.09;1088109;54;20098;-83
2022/04/07 07:31:38;;;;;;;4.75;0.80;;;;;;;11.40;63.03;97917.25;1088073;54;20041;-82
2022/04/07 07:32:41;;;;;;;2.50;0.70;;;;;;;11.34;63.52;97918.09;1088114;54;20065;-85
2022/04/07 07:33:48;;;;;;;2.38;0.50;;;;;;;11.41;63.72;97908.22;1088058;54;20034;-83
2022/04/07 07:34:50;;;;;;;2.80;0.73;;;;;;;11.61;63.04;97908.28;1088136;54;20034;-81
2022/04/07 07:35:54;;;;;;;2.35;0.60;;;;;;;11.61;62.92;97910.09;1088083;54;20030;-82
2022/04/07 07:36:56;;;;;;;3.00;1.35;;;;;;;11.52;62.83;97914.84;1088105;54;20018;-82
2022/04/07 07:38:02;;;;;;;3.10;1.25;;;;;;;11.50;62.93;97908.88;1088060;54;20041;-81
2022/04/07 07:39:07;;;;;;;2.70;0.88;;;;;;;11.52;62.90;97899.59;1088080;54;20043;-83
2022/04/07 07:40:11;;;;;;;5.05;0.70;;;;;;;11.56;63.21;97908.03;1087940;54;20058;-82
2022/04/07 07:41:15;;;;;;;3.05;0.63;;;;;;;11.73;62.69;97899.63;1087693;54;20042;-83
2022/04/07 07:42:16;;;;;;;2.38;0.52;;;;;;;11.49;63.19;97899.19;1087958;54;20018;-83
2022/04/07 07:43:21;;;;;;;2.30;0.60;;;;;;;11.49;63.13;97896.50;1088050;54;20034;-83
2022/04/07 07:44:23;;;;;;;1.23;0.50;;;;;;;11.58;63.14;97903.31;1088553;47;20086;-84
2022/04/07 07:45:29;;;;;;;2.63;0.68;;;;;;;11.53;63.19;97898.56;1088070;54;20090;-85
2022/04/07 07:46:34;;;;;;;2.03;0.70;;;;;;;11.68;63.06;97889.53;1088561;39;20609;-85
2022/04/07 07:47:36;;;;;;;2.03;0.60;;;;;;;11.68;63.17;97885.00;1088100;54;20074;-82
2022/04/07 07:48:40;;;;;;;2.03;0.50;;;;;;;11.70;62.83;97884.78;1088063;54;20110;-82
2022/04/07 07:49:46;;;;;;;2.47;0.60;;;;;;;11.88;62.54;97875.31;1088084;54;20023;-82
2022/04/07 07:50:50;;;;;;;1.75;0.55;;;;;;;11.95;62.25;97876.16;1088055;54;20031;-82
2022/04/07 07:51:51;;;;;;;2.05;0.70;;;;;;;11.96;62.46;97857.22;1088147;54;20062;-82
2022/04/07 07:52:55;;;;;;;1.48;0.50;;;;;;;11.82;62.51;97871.63;1088084;54;20025;-81
2022/04/07 07:54:00;;;;;;;2.90;0.50;;;;;;;11.89;62.06;97866.28;1088040;54;20041;-80
2022/04/07 07:55:02;;;;;;;1.58;0.60;;;;;;;11.91;62.12;97861.53;1088098;54;20038;-79
2022/04/07 07:56:06;;;;;;;2.13;0.55;;;;;;;11.90;62.16;97862.56;1088084;54;20101;-80
2022/04/07 07:57:08;;;;;;;1.80;0.60;;;;;;;11.96;62.02;97862.56;1087850;54;20061;-81
2022/04/07 07:58:13;;;;;;;2.17;0.60;;;;;;;11.93;62.04;97854.94;1087714;54;20678;-80
2022/04/07 07:59:15;;;;;;;1.58;0.60;;;;;;;11.83;62.22;97866.06;1088100;54;20022;-81
2022/04/07 08:00:23;;;;;;;3.15;0.70;;;;;;;11.88;62.01;97865.47;1087999;54;20023;-82
2022/04/07 08:01:26;;;;;;;3.00;1.08;;;;;;;11.98;61.67;97855.19;1088823;47;20018;-83
2022/04/07 08:02:31;;;;;;;2.25;0.80;;;;;;;12.05;61.38;97863.19;1087772;54;20038;-80
2022/04/07 08:03:35;;;;;;;2.15;0.85;;;;;;;12.11;61.50;97856.19;1090724;47;20161;-82
2022/04/07 08:04:36;;;;;;;3.75;1.35;;;;;;;11.93;61.73;97857.63;1088107;54;20038;-81
2022/04/07 08:05:43;;;;;;;3.40;1.40;;;;;;;12.00;61.47;97847.75;1091613;47;20042;-82
2022/04/07 08:06:44;;;;;;;8.98;3.58;;;;;;;11.88;61.86;97854.75;1088093;54;20045;-83
2022/04/07 08:07:48;;;;;;;5.00;2.25;;;;;;;12.08;61.27;97852.06;1088004;54;20030;-82
2022/04/07 08:08:50;;;;;;;3.90;1.60;;;;;;;12.02;61.58;97856.41;1088108;54;20038;-83
2022/04/07 08:09:54;;;;;;;5.25;2.50;;;;;;;12.12;61.44;97852.47;1088077;54;20038;-82
2022/04/07 08:10:58;;;;;;;4.85;2.03;;;;;;;12.24;61.21;97847.28;1087890;54;20046;-82
2022/04/07 08:12:00;;;;;;;5.13;1.90;;;;;;;12.11;61.57;97848.16;1088031;54;20038;-82
2022/04/07 08:13:04;;;;;;;5.45;2.58;;;;;;;12.17;61.31;97841.97;1088057;54;20022;-82
2022/04/07 08:14:08;;;;;;;7.95;2.63;;;;;;;12.22;61.29;97844.84;1087604;54;20050;-83
2022/04/07 08:15:12;;;;;;;4.53;1.95;;;;;;;12.25;61.16;97843.59;1087799;54;20023;-82
2022/04/07 08:16:16;;;;;;;5.40;2.53;;;;;;;12.20;61.31;97841.53;1089498;39;20284;-83
2022/04/07 08:17:21;;;;;;;7.88;3.55;;;;;;;12.13;61.53;97838.91;1088045;54;20061;-81
2022/04/07 08:18:23;;;;;;;6.30;2.55;;;;;;;12.22;61.37;97838.66;1093572;39;20211;-82
2022/04/07 08:19:27;;;;;;;8.73;4.20;;;;;;;12.22;61.13;97838.66;1088068;54;20035;-81
2022/04/07 08:20:29;;;;;;;4.93;2.42;;;;;;;12.17;60.92;97828.59;1090016;47;20042;-83
2022/04/07 08:21:35;;;;;;;5.93;2.10;;;;;;;12.13;61.30;97840.72;1088391;54;20037;-81
2022/04/07 08:22:39;;;;;;;4.65;1.58;;;;;;;12.01;61.15;97835.19;1088340;54;20030;-80
2022/04/07 08:23:41;;;;;;;4.38;2.38;;;;;;;12.19;61.28;97837.22;1088350;54;20041;-81
2022/04/07 08:24:45;;;;;;;4.07;1.67;;;;;;;12.25;61.00;97839.06;1088454;54;20034;-81
2022/04/07 08:25:49;;;;;;;7.35;2.20;;;;;;;12.23;61.25;97838.44;1088339;54;20038;-82
2022/04/07 08:26:51;;;;;;;5.00;1.85;;;;;;;12.15;61.13;97820.75;1088425;54;20045;-82
2022/04/07 08:27:55;;;;;;;4.40;2.33;;;;;;;12.05;61.29;97827.56;1088364;54;20034;-82
2022/04/07 08:28:56;;;;;;;3.80;1.98;;;;;;;12.15;61.20;97822.59;1088335;54;20034;-83
2022/04/07 08:30:00;;;;;;;3.83;1.65;;;;;;;12.28;61.15;97827.09;1088238;54;20034;-81
2022/04/07 08:31:02;;;;;;;3.75;1.52;;;;;;;12.24;60.87;97818.66;1087820;54;20049;-80
2022/04/07 08:32:07;;;;;;;3.08;1.52;;;;;;;12.23;61.08;97822.38;1088220;54;20034;-83
2022/04/07 08:33:11;;;;;;;3.85;1.70;;;;;;;12.16;61.00;97825.06;1088354;54;20041;-81
2022/04/07 08:34:13;;;;;;;3.72;1.80;;;;;;;12.18;60.92;97819.53;1088306;54;20050;-81
2022/04/07 08:35:17;;;;;;;3.10;1.63;;;;;;;12.27;60.91;97818.25;1094907;39;20293;-82
2022/04/07 08:36:19;;;;;;;4.18;1.30;;;;;;;12.41;60.91;97811.00;1093368;39;20191;-81
2022/04/07 08:37:26;;;;;;;3.53;1.05;;;;;;;12.47;60.29;97812.00;1088331;54;20034;-81
2022/04/07 08:38:30;;;;;;;1.88;0.63;;;;;;;12.25;60.31;97801.56;1088387;54;20038;-81
2022/04/07 08:39:31;;;;;;;2.25;0.60;;;;;;;12.41;60.20;97802.13;1090433;46;20042;-77
2022/04/07 08:40:38;;;;;;;2.28;0.60;;;;;;;12.43;60.25;97795.53;1088353;54;20050;-79
2022/04/07 08:41:42;;;;;;;2.58;0.73;;;;;;;12.47;60.49;97794.06;1088262;54;20053;-76
2022/04/07 08:42:47;;;;;;;2.85;0.80;;;;;;;12.62;60.14;97801.00;1088368;54;20042;-80
2022/04/07 08:43:51;;;;;;;3.65;0.85;;;;;;;12.68;60.04;97793.97;1090401;39;20253;-79
2022/04/07 08:44:55;;;;;;;2.75;0.80;;;;;;;12.82;59.43;97784.84;1088290;54;20032;-81
2022/04/07 08:45:57;;;;;;;2.42;0.60;;;;;;;12.50;59.92;97795.50;1088301;54;20030;-82
2022/04/07 08:47:02;;;;;;;2.83;0.60;;;;;;;12.55;59.92;97790.34;1088062;54;20030;-81
2022/04/07 08:48:09;;;;;;;1.25;0.40;;;;;;;12.55;59.63;97784.13;1088010;54;20039;-82
2022/04/07 08:49:13;;;;;;;2.22;0.43;;;;;;;12.50;59.31;97784.78;1088318;54;20037;-83
2022/04/07 08:50:24;;;;;;;2.40;0.63;;;;;;;12.51;59.48;97788.28;1088176;54;20038;-80
2022/04/07 08:51:31;;;;;;;2.90;0.70;;;;;;;12.51;59.69;97777.56;1088293;54;20050;-79
2022/04/07 08:52:38;;;;;;;1.95;0.73;;;;;;;12.57;59.67;97774.84;1088285;54;20038;-80
2022/04/07 08:53:40;;;;;;;3.83;1.20;;;;;;;12.53;59.75;97776.31;1088276;54;20029;-82
2022/04/07 08:54:47;;;;;;;2.13;0.80;;;;;;;12.58;59.29;97778.38;1088335;54;20018;-81
2022/04/07 08:55:49;;;;;;;1.67;0.60;;;;;;;12.54;59.61;97772.63;1088289;47;20391;-81
2022/04/07 08:56:53;;;;;;;1.25;0.52;;;;;;;12.54;59.60;97761.91;1088308;54;20038;-80
2022/04/07 08:57:55;;;;;;;4.20;0.80;;;;;;;12.68;59.40;97761.81;1088442;54;20784;-82
2022/04/07 08:58:59;;;;;;;2.38;0.80;;;;;;;12.79;58.91;97753.09;1088479;54;20026;-83
2022/04/07 09:00:01;;;;;;;2.92;0.80;;;;;;;12.80;59.28;97739.47;1090915;46;20038;-80
2022/04/07 09:01:05;;;;;;;2.75;0.63;;;;;;;12.68;59.29;97751.09;1088303;54;20022;-81
2022/04/07 09:02:10;;;;;;;3.72;0.80;;;;;;;12.62;59.06;97744.72;1088258;54;20038;-82
2022/04/07 09:03:14;;;;;;;1.88;0.60;;;;;;;12.74;58.99;97742.22;1087792;54;20033;-81
2022/04/07 09:04:15;;;;;;;2.13;0.65;;;;;;;12.82;58.81;97747.31;1087963;54;20034;-79
2022/04/07 09:05:25;;;;;;;4.13;0.63;;;;;;;12.78;58.75;97754.13;1088261;54;20026;-83
2022/04/07 09:06:29;;;;;;;2.05;0.60;;;;;;;12.59;59.24;97735.25;1088352;54;20023;-82
2022/04/07 09:07:34;;;;;;;1.77;0.50;;;;;;;12.64;59.28;97745.34;1088309;54;20017;-80
2022/04/07 09:08:42;;;;;;;1.77;0.52;;;;;;;12.59;59.56;97759.38;1088358;54;20061;-80
2022/04/07 09:09:44;;;;;;;2.20;0.60;;;;;;;12.55;59.56;97742.09;1088321;54;20034;-83
2022/04/07 09:10:56;;;;;;;2.13;0.60;;;;;;;12.68;60.08;97745.72;1088263;54;20034;-80
2022/04/07 09:12:00;;;;;;;4.63;1.55;;;;;;;12.63;60.59;97751.72;1088346;54;20120;-80
2022/04/07 09:13:05;;;;;;;6.70;2.20;;;;;;;12.55;60.84;97757.34;1090009;46;20053;-81
2022/04/07 09:14:11;;;;;;;5.53;2.53;;;;;;;12.49;61.80;97753.66;1088315;54;20019;-82
2022/04/07 09:15:14;;;;;;;4.47;2.08;;;;;;;12.44;62.51;97758.84;1088301;54;20058;-79
2022/04/07 09:16:19;;;;;;;4.05;2.00;;;;;;;12.42;62.62;97748.31;1088286;54;20721;-81
2022/04/07 09:17:20;;;;;;;3.72;2.05;;;;;;;12.30;63.54;97758.88;1088324;54;20050;-80
2022/04/07 09:18:26;;;;;;;7.03;2.25;;;;;;;12.38;63.47;97757.00;1088298;54;20030;-83
2022/04/07 09:19:34;;;;;;;6.47;1.25;;;;;;;12.16;64.28;97768.00;1088303;54;20094;-81
2022/04/07 09:20:42;;;;;;;3.95;0.80;;;;;;;12.18;63.68;97757.91;1087872;54;20034;-80
2022/04/07 09:21:46;;;;;;;4.35;0.85;;;;;;;12.19;63.61;97748.81;1096375;39;21016;-82
2022/04/07 09:22:56;;;;;;;3.67;0.70;;;;;;;12.23;63.43;97744.69;1088345;54;20034;-82
2022/04/07 09:24:05;;;;;;;2.22;0.68;;;;;;;12.30;63.67;97752.72;1088351;54;20037;-81
2022/04/07 09:25:08;;;;;;;2.65;0.73;;;;;;;12.26;63.52;97748.81;1088000;54;20058;-81
2022/04/07 09:26:14;;;;;;;1.77;0.60;;;;;;;12.30;63.68;97745.50;1088158;54;21000;-80
2022/04/07 09:27:16;;;;;;;3.80;0.70;;;;;;;12.24;63.51;97740.16;1088342;54;20011;-80
2022/04/07 09:28:28;;;;;;;1.73;0.60;;;;;;;12.20;63.64;97745.13;1088053;54;20059;-81
2022/04/07 09:29:37;;;;;;;2.65;0.65;;;;;;;12.21;63.23;97741.41;1087884;54;20049;-81
2022/04/07 09:30:43;;;;;;;2.10;0.50;;;;;;;12.23;63.19;97733.97;1087761;54;20112;-82
2022/04/07 09:31:54;;;;;;;2.08;0.50;;;;;;;12.28;62.50;97736.84;1089051;47;20030;-81
2022/04/07 09:32:56;;;;;;;2.20;0.50;;;;;;;12.40;62.46;97738.84;1087907;54;20038;-81
2022/04/07 09:34:01;;;;;;;2.65;0.90;;;;;;;12.40;62.28;97737.00;1087856;54;20038;-82
2022/04/07 09:35:04;;;;;;;3.20;0.52;;;;;;;12.42;62.46;97734.13;1088328;39;20607;-81
2022/04/07 09:36:10;;;;;;;1.85;0.60;;;;;;;12.44;62.36;97730.19;1087873;54;20038;-80
2022/04/07 09:37:12;;;;;;;3.13;0.70;;;;;;;12.46;62.59;97729.97;1088348;54;20035;-80
2022/04/07 09:38:26;;;;;;;5.15;0.60;;;;;;;12.42;62.90;97731.44;1088115;54;20149;-81
2022/04/07 09:39:34;;;;;;;2.20;0.70;;;;;;;12.41;63.09;97732.47;1087834;54;20034;-81
2022/04/07 09:40:44;;;;;;;16.42;1.00;;;;;;;12.47;62.58;97732.44;1089026;46;20044;-81
2022/04/07 09:41:48;;;;;;;2.63;0.80;;;;;;;12.51;62.51;97724.78;1088268;54;20030;-81
2022/04/07 09:42:57;;;;;;;2.92;0.70;;;;;;;12.45;62.92;97725.66;1088307;54;20029;-82
2022/04/07 09:44:04;;;;;;;2.35;0.50;;;;;;;12.53;62.84;97727.25;1092266;39;20641;-82
2022/04/07 09:45:07;;;;;;;2.42;0.50;;;;;;;12.52;62.81;97728.28;1088288;54;20019;-80
2022/04/07 09:46:12;;;;;;;1.42;0.30;;;;;;;12.41;62.82;97722.59;1088241;54;20038;-81
2022/04/07 09:47:19;;;;;;;2.35;0.60;;;;;;;12.45;62.69;97722.97;1088221;54;20047;-80
2022/04/07 09:48:22;;;;;;;2.92;0.40;;;;;;;12.59;62.30;97716.50;1088261;54;20062;-81
2022/04/07 09:49:26;;;;;;;1.55;0.40;;;;;;;12.48;62.41;97714.50;1088254;54;20026;-82
2022/04/07 09:50:30;;;;;;;1.48;0.50;;;;;;;12.55;62.07;97726.03;1091205;39;20643;-81
2022/04/07 09:51:40;;;;;;;2.45;0.50;;;;;;;12.52;61.84;97720.25;1092231;39;20589;-82
2022/04/07 09:52:54;;;;;;;0.93;0.30;;;;;;;12.51;61.56;97730.16;1088176;54;20025;-81
2022/04/07 09:53:59;;;;;;;1.30;0.50;;;;;;;12.56;61.29;97727.66;1088130;54;20054;-83
2022/04/07 09:55:08;;;;;;;1.67;0.50;;;;;;;12.62;61.07;97708.03;1087951;54;20042;-83
2022/04/07 09:56:10;;;;;;;2.13;0.60;;;;;;;12.69;61.00;97683.03;1087813;54;20061;-83
2022/04/07 09:57:18;;;;;;;0.65;0.30;;;;;;;12.71;60.42;97721.19;1088285;54;20034;-81
2022/04/07 09:58:20;;;;;;;1.90;0.30;;;;;;;12.72;60.74;97693.34;1089376;46;20038;-81
2022/04/07 09:59:25;;;;;;;2.22;0.40;;;;;;;12.63;60.22;97698.97;1088250;54;20050;-82
2022/04/07 10:00:27;;;;;;;1.20;0.32;;;;;;;12.70;60.43;97695.41;1088221;54;20041;-85
2022/04/07 10:01:32;;;;;;;1.40;0.30;;;;;;;12.70;60.76;97690.06;1088132;54;20025;-80
2022/04/07 10:02:38;;;;;;;2.65;0.50;;;;;;;12.64;61.62;97707.81;1088952;46;20060;-81
2022/04/07 10:03:40;;;;;;;2.05;0.50;;;;;;;12.59;62.41;97699.59;1087996;54;21469;-84
2022/04/07 10:04:45;;;;;;;0.98;0.40;;;;;;;12.59;62.72;97695.06;1087742;54;20034;-82
2022/04/07 10:05:48;;;;;;;1.55;0.60;;;;;;;12.56;61.79;97686.63;1088185;54;20038;-82
2022/04/07 10:06:53;;;;;;;3.95;0.50;;;;;;;12.59;61.84;97684.34;1088254;54;20038;-81
2022/04/07 10:07:57;;;;;;;0.90;0.60;;;;;;;12.54;61.32;97680.66;1088251;54;20014;-81
2022/04/07 10:09:03;;;;;;;2.90;0.40;;;;;;;12.59;60.22;97673.63;1088388;47;20021;-81
2022/04/07 10:10:08;;;;;;;1.20;0.40;;;;;;;12.62;60.12;97669.69;1089154;39;20737;-83
2022/04/07 10:11:12;;;;;;;0.93;0.35;;;;;;;12.67;60.07;97663.66;1088114;54;20034;-82
2022/04/07 10:12:17;;;;;;;1.23;0.30;;;;;;;12.70;59.98;97663.25;1087747;54;20057;-81
2022/04/07 10:13:19;;;;;;;1.13;0.40;;;;;;;12.76;59.78;97667.72;1088052;54;20035;-80
2022/04/07 10:14:24;;;;;;;2.15;0.40;;;;;;;12.72;60.32;97670.03;1088121;54;20035;-81
2022/04/07 10:15:29;;;;;;;2.10;0.68;;;;;;;12.73;60.53;97666.31;1088154;54;20031;-80
2022/04/07 10:16:33;;;;;;;1.88;0.55;;;;;;;12.76;60.50;97670.41;1088213;54;20050;-83
2022/04/07 10:17:38;;;;;;;2.30;0.75;;;;;;;12.78;60.42;97660.28;1088200;54;20041;-82
2022/04/07 10:18:44;;;;;;;2.25;0.50;;;;;;;12.84;60.25;97654.09;1088257;54;20041;-80
2022/04/07 10:19:54;;;;;;;1.05;0.40;;;;;;;12.85;59.73;97644.97;1088173;54;20034;-80
2022/04/07 10:20:59;;;;;;;1.05;0.40;;;;;;;12.90;60.07;97663.94;1088085;54;20053;-79
2022/04/07 10:22:37;;;;;;;1.52;0.50;;;;;;;12.78;60.04;97658.47;1088157;54;20112;-81
2022/04/07 10:23:50;;;;;;;1.15;0.35;;;;;;;12.77;60.03;97658.66;1089475;39;20591;-81
2022/04/07 10:24:57;;;;;;;3.40;0.65;;;;;;;12.80;60.03;97647.50;1089109;39;20622;-79
2022/04/07 10:26:05;;;;;;;0.95;0.30;;;;;;;12.77;59.73;97642.56;1091661;39;20563;-81
2022/04/07 10:27:11;;;;;;;3.20;1.08;;;;;;;12.84;59.83;97621.91;1088137;54;20030;-80
2022/04/07 10:28:15;;;;;;;3.08;1.27;;;;;;;12.83;60.07;97631.00;1087976;54;20046;-83
2022/04/07 10:29:24;;;;;;;2.90;0.88;;;;;;;12.91;59.70;97625.34;1088252;39;20607;-82
2022/04/07 10:30:32;;;;;;;2.17;0.63;;;;;;;12.94;59.87;97635.63;1088100;54;20045;-79
2022/04/07 10:31:33;;;;;;;1.40;0.50;;;;;;;12.86;59.76;97625.16;1088171;54;20040;-83
2022/04/07 10:32:42;;;;;;;3.03;0.50;;;;;;;12.87;59.70;97597.31;1088119;54;20707;-81
2022/04/07 10:33:48;;;;;;;1.33;0.57;;;;;;;13.01;59.47;97610.63;1094316;39;20647;-81
2022/04/07 10:34:54;;;;;;;3.85;0.63;;;;;;;12.90;59.76;97618.34;1094273;39;20715;-83
2022/04/07 10:35:58;;;;;;;1.77;0.50;;;;;;;12.94;59.41;97616.03;1088109;54;20034;-81
2022/04/07 10:37:02;;;;;;;3.00;0.70;;;;;;;13.04;59.34;97612.84;1088191;54;20062;-83
2022/04/07 10:38:09;;;;;;;2.83;0.70;;;;;;;13.00;59.39;97603.63;1088171;54;20030;-83
2022/04/07 10:39:15;;;;;;;2.00;0.75;;;;;;;13.12;59.01;97593.81;1088184;54;20019;-83
2022/04/07 10:40:32;;;;;;;3.03;0.90;;;;;;;13.05;59.12;97601.09;1088172;54;20036;-81
2022/04/07 10:41:51;;;;;;;1.75;0.57;;;;;;;13.05;59.05;97596.56;1088108;54;20681;-80
2022/04/07 10:43:10;;;;;;;1.30;0.47;;;;;;;13.11;59.35;97584.13;1087897;54;20014;-80
2022/04/07 10:44:15;;;;;;;1.75;0.60;;;;;;;13.22;59.11;97580.72;1090145;39;20572;-81
2022/04/07 10:45:30;;;;;;;2.30;0.65;;;;;;;13.20;59.08;97580.13;1087740;54;20030;-84
2022/04/07 10:46:34;;;;;;;2.08;0.60;;;;;;;13.30;58.83;97573.41;1088088;54;20037;-82
2022/04/07 10:47:40;;;;;;;3.47;0.60;;;;;;;13.20;58.71;97572.06;1093032;39;20645;-83
2022/04/07 10:49:09;;;;;;;4.53;0.73;;;;;;;13.19;58.51;97570.44;1088107;54;20040;-81
2022/04/07 10:50:17;;;;;;;4.75;0.90;;;;;;;13.26;58.33;97573.84;1089561;39;20723;-80
2022/04/07 10:51:45;;;;;;;3.25;0.90;;;;;;;13.37;58.51;97577.66;1088100;54;20014;-82
2022/04/07 10:52:47;;;;;;;2.60;1.00;;;;;;;13.40;58.76;97581.81;1088174;54;20026;-79
2022/04/07 10:54:05;;;;;;;2.17;0.60;;;;;;;13.28;58.08;97573.63;1088157;54;20030;-81
2022/04/07 10:55:12;;;;;;;3.53;0.80;;;;;;;13.35;58.21;97566.34;1088137;54;20069;-81
2022/04/07 10:56:31;;;;;;;1.55;0.50;;;;;;;13.50;58.00;97570.53;1088048;54;20018;-80
2022/04/07 10:57:36;;;;;;;2.97;0.50;;;;;;;13.34;58.56;97579.97;1088231;54;20023;-80
2022/04/07 10:58:51;;;;;;;2.28;0.70;;;;;;;13.50;58.30;97568.69;1088198;54;20018;-79
2022/04/07 10:59:56;;;;;;;2.05;0.60;;;;;;;13.55;58.56;97562.66;1088144;54;20029;-80
2022/04/07 11:00:57;;;;;;;3.70;0.60;;;;;;;13.54;57.97;97552.94;1088014;54;20023;-81
2022/04/07 11:02:03;;;;;;;1.30;0.50;;;;;;;13.49;57.81;97550.94;1087799;54;20090;-81
2022/04/07 11:03:13;;;;;;;0.98;0.38;;;;;;;13.51;57.35;97553.38;1088126;54;20054;-79
2022/04/07 11:04:38;;;;;;;1.38;0.40;;;;;;;13.52;57.49;97553.16;1088240;54;20070;-79
2022/04/07 11:05:55;;;;;;;1.02;0.40;;;;;;;13.56;57.59;97554.34;1087533;54;20034;-77
2022/04/07 11:07:15;;;;;;;2.47;0.50;;;;;;;13.52;57.63;97545.09;1088253;54;20170;-80
2022/04/07 11:08:24;;;;;;;2.63;0.40;;;;;;;13.60;57.85;97549.34;1088180;54;20069;-81
2022/04/07 11:09:25;;;;;;;1.52;0.40;;;;;;;13.60;57.73;97543.97;1088209;54;20082;-82
2022/04/07 11:10:48;;;;;;;2.53;0.50;;;;;;;13.67;57.26;97547.41;1088172;54;20090;-81
2022/04/07 11:11:52;;;;;;;1.63;0.43;;;;;;;13.74;57.28;97552.69;1088166;54;20034;-79
2022/04/07 11:13:06;;;;;;;2.65;0.50;;;;;;;13.70;57.03;97552.31;1088262;54;20018;-81
2022/04/07 11:14:08;;;;;;;1.15;0.50;;;;;;;13.79;56.74;97515.22;1088753;46;20059;-79
2022/04/07 11:15:30;;;;;;;0.50;0.30;;;;;;;13.85;56.22;97527.75;1090768;46;20030;-82
2022/04/07 11:16:40;;;;;;;2.15;0.60;;;;;;;13.88;55.73;97532.69;1089573;39;20593;-79
2022/04/07 11:17:48;;;;;;;2.75;0.40;;;;;;;13.89;55.10;97533.50;1087995;54;20038;-80
2022/04/07 11:19:11;;;;;;;0.95;0.30;;;;;;;14.00;54.16;97511.25;1087665;54;20038;-80
2022/04/07 11:20:18;;;;;;;1.63;0.30;;;;;;;14.04;54.28;97519.66;1088106;54;20030;-80
2022/04/07 11:21:23;;;;;;;1.75;0.40;;;;;;;14.05;53.95;97518.59;1089022;46;20014;-81
2022/04/07 11:22:46;;;;;;;2.28;0.75;;;;;;;14.04;53.34;97517.78;1088071;54;20630;-81
2022/04/07 11:23:55;;;;;;;1.98;0.68;;;;;;;14.13;53.09;97493.25;1088152;54;20065;-80
2022/04/07 11:25:04;;;;;;;2.58;0.35;;;;;;;14.12;52.80;97503.22;1096272;39;20852;-80
2022/04/07 11:26:12;;;;;;;4.45;0.30;;;;;;;14.23;52.65;97498.91;1088112;54;20753;-80
2022/04/07 11:27:35;;;;;;;0.65;0.30;;;;;;;14.16;53.16;97495.50;1091162;39;20609;-81
2022/04/07 11:28:58;;;;;;;0.65;0.30;;;;;;;14.22;53.28;97515.25;1088061;54;20037;-80
2022/04/07 11:30:05;;;;;;;0.85;0.28;;;;;;;14.23;53.29;97501.59;1088138;54;20041;-83
2022/04/07 11:31:09;;;;;;;1.13;0.30;;;;;;;14.22;53.55;97512.56;1088076;54;20025;-81
2022/04/07 11:32:11;;;;;;;0.90;0.30;;;;;;;14.25;53.30;97504.06;1088463;47;20048;-81
2022/04/07 11:33:41;;;;;;;2.08;0.50;;;;;;;14.27;53.41;97481.28;1088070;54;20021;-80
2022/04/07 11:34:50;;;;;;;0.88;0.30;;;;;;;14.30;53.40;97491.56;1087668;54;20038;-82
2022/04/07 11:36:39;;;;;;;0.60;0.38;;;;;;;14.30;53.68;97490.72;1088160;47;20023;-80
2022/04/07 11:37:41;;;;;;;0.25;0.20;;;;;;;14.39;53.45;97491.22;1088066;54;20752;-80
2022/04/07 11:38:47;;;;;;;0.85;0.30;;;;;;;14.37;53.12;97480.69;1088077;54;20631;-81
2022/04/07 11:39:53;;;;;;;4.82;0.40;;;;;;;14.36;53.01;97473.69;1088017;54;20038;-78
2022/04/07 11:40:58;;;;;;;2.78;0.40;;;;;;;14.38;52.65;97473.47;1087911;54;20033;-80
2022/04/07 11:42:02;;;;;;;2.75;0.70;;;;;;;14.39;52.80;97481.28;1088051;54;20037;-80
2022/04/07 11:43:04;;;;;;;4.53;0.40;;;;;;;14.43;52.56;97469.03;1088109;54;20023;-80
2022/04/07 11:44:13;;;;;;;1.17;0.30;;;;;;;14.52;52.51;97464.09;1088070;54;20034;-81
2022/04/07 11:45:18;;;;;;;1.88;0.30;;;;;;;14.44;52.57;97476.03;1087999;54;20052;-80
2022/04/07 11:46:25;;;;;;;0.98;0.38;;;;;;;14.51;52.83;97470.53;1092627;39;20913;-82
2022/04/07 11:47:33;;;;;;;1.88;0.30;;;;;;;14.57;52.85;97461.56;1088064;54;20034;-79
2022/04/07 11:48:35;;;;;;;1.35;0.40;;;;;;;14.58;52.84;97462.34;1088086;54;20022;-80
2022/04/07 11:49:39;;;;;;;1.63;0.50;;;;;;;14.61;52.39;97472.66;1088043;54;20026;-81
2022/04/07 11:50:44;;;;;;;0.98;0.40;;;;;;;14.61;52.70;97476.16;1087938;54;20046;-80
2022/04/07 11:51:48;;;;;;;2.55;0.40;;;;;;;14.63;52.58;97479.44;1087736;54;20046;-80
2022/04/07 11:52:50;;;;;;;0.95;0.35;;;;;;;14.65;53.02;97473.81;1087921;54;20035;-80
2022/04/07 11:53:56;;;;;;;0.28;0.20;;;;;;;14.68;52.89;97457.25;1089224;47;20042;-80
2022/04/07 11:55:02;;;;;;;1.77;0.47;;;;;;;14.70;52.49;97470.44;1088346;54;20041;-78
2022/04/07 11:56:12;;;;;;;1.92;0.50;;;;;;;14.58;52.36;97465.88;1088274;54;20026;-79
2022/04/07 11:57:16;;;;;;;2.33;0.50;;;;;;;14.59;52.49;97469.38;1088436;54;20071;-79
2022/04/07 11:58:20;;;;;;;1.40;0.35;;;;;;;14.58;52.91;97475.81;1094505;39;20931;-80
2022/04/07 11:59:24;;;;;;;1.00;0.40;;;;;;;14.60;52.80;97477.19;1088448;54;20034;-79
2022/04/07 12:00:31;;;;;;;0.90;0.40;;;;;;;14.67;52.31;97463.69;1088374;54;20064;-80
2022/04/07 12:01:36;;;;;;;0.45;0.30;;;;;;;14.68;52.48;97462.63;1088332;54;20037;-80
2022/04/07 12:02:40;;;;;;;0.45;0.20;;;;;;;14.64;52.44;97466.81;1089203;46;20038;-79
2022/04/07 12:03:41;;;;;;;3.33;0.45;;;;;;;14.65;52.59;97480.03;1088383;54;20034;-83